Terminal Aerodrome Forecast
Issued by NWS

Home | Current Version | Previous Version | Text Only | Print | Product List | Glossary On
Versions: 1 2 3 4 5 6 7 8 9 10 11 12 13 14 15 16 17 18 19 20 21 22 23 24 25 26 27 28 29 30 31 32 33 34 35
000
FTUS42 KGSP 291307 AAA
TAFHKY
TAF AMD
KHKY 291307Z 2913/3012 06003KT 6SM -RA BR OVC003
      TEMPO 2913/2915 4SM BR SCT003 OVC010
     FM291500 06004KT 6SM -RA BR OVC016
     FM291700 05003KT 6SM BR OVC014
     FM292300 00000KT 4SM BR OVC006
     FM300200 00000KT 2SM BR OVC003=

USA.gov is the U.S. government's official web portal to all federal, state and local government web resources and services.